Time;durP1;ratioP1;P1;durP2;ratioP2;P2;SDS_P1;SDS_P2;PMS_P1;PMS_P2;Temp;Humidity;BMP_temperature;BMP_pressure;BME280_temperature;BME280_humidity;BME280_pressure;Samples;Min_cycle;Max_cycle;Signal;HPM_P1;HPM_P2
2023/06/25 00:00:05;;;;;;;11.85;7.80;;;15.90;99.90;;;;;;5012451;28;20033;-77
2023/06/25 00:02:30;;;;;;;11.70;7.32;;;16.00;99.90;;;;;;5010780;28;20386;-79
2023/06/25 00:04:56;;;;;;;14.48;8.00;;;16.00;99.90;;;;;;5012134;28;20037;-78
2023/06/25 00:07:22;;;;;;;13.15;7.97;;;16.00;99.90;;;;;;5014272;28;20037;-77
2023/06/25 00:09:55;;;;;;;12.75;7.60;;;15.90;99.90;;;;;;5010727;28;20045;-78
2023/06/25 00:12:21;;;;;;;12.70;7.63;;;15.80;99.90;;;;;;5011374;28;20022;-75
2023/06/25 00:14:47;;;;;;;12.48;8.05;;;15.80;99.90;;;;;;5012147;28;20089;-78
2023/06/25 00:17:17;;;;;;;14.32;7.93;;;15.70;99.90;;;;;;5016853;28;20033;-77
2023/06/25 00:19:45;;;;;;;12.70;7.75;;;15.80;99.90;;;;;;5030491;28;20033;-77
2023/06/25 00:22:11;;;;;;;13.70;7.88;;;15.80;99.90;;;;;;5017683;28;20088;-78
2023/06/25 00:24:40;;;;;;;12.60;7.85;;;15.80;99.90;;;;;;5009742;28;20103;-80
2023/06/25 00:27:06;;;;;;;13.30;7.05;;;15.80;99.90;;;;;;5015311;28;20029;-79
2023/06/25 00:29:33;;;;;;;12.70;8.20;;;15.80;99.90;;;;;;5021109;28;20556;-77
2023/06/25 00:31:59;;;;;;;14.80;7.90;;;15.70;99.90;;;;;;5010257;28;20684;-78
2023/06/25 00:34:24;;;;;;;12.43;7.88;;;15.50;99.90;;;;;;4998106;28;20058;-78
2023/06/25 00:36:53;;;;;;;12.55;7.85;;;15.40;99.90;;;;;;4992249;28;20069;-77
2023/06/25 00:39:19;;;;;;;13.38;7.72;;;15.30;99.90;;;;;;5003205;28;20033;-78
2023/06/25 00:41:45;;;;;;;13.90;8.43;;;15.30;99.90;;;;;;5030488;28;20394;-79
2023/06/25 00:44:11;;;;;;;13.93;8.35;;;15.20;99.90;;;;;;5031085;28;20031;-79
2023/06/25 00:46:37;;;;;;;13.48;8.70;;;15.20;99.90;;;;;;5017879;28;20049;-77
2023/06/25 00:49:05;;;;;;;13.05;8.27;;;15.20;99.90;;;;;;5011260;28;20079;-78
2023/06/25 00:51:34;;;;;;;15.32;8.32;;;15.30;99.90;;;;;;5010398;28;20030;-77
2023/06/25 00:54:00;;;;;;;13.23;8.48;;;15.30;99.90;;;;;;5021812;28;20370;-77
2023/06/25 00:56:29;;;;;;;14.98;8.32;;;15.20;99.90;;;;;;5025209;28;20033;-78
2023/06/25 00:59:01;;;;;;;13.10;8.23;;;15.10;99.90;;;;;;5010053;28;20048;-76
2023/06/25 01:01:55;;;;;;;14.50;8.57;;;15.00;99.90;;;;;;5009236;28;20030;-78
2023/06/25 01:04:35;;;;;;;12.43;7.60;;;15.00;99.90;;;;;;5010685;28;20383;-77
2023/06/25 01:07:04;;;;;;;14.75;7.88;;;14.90;99.90;;;;;;4994424;28;20030;-77
2023/06/25 01:09:31;;;;;;;13.68;8.30;;;14.80;99.90;;;;;;5016734;28;20066;-78
2023/06/25 01:12:05;;;;;;;14.23;8.52;;;14.80;99.90;;;;;;5010606;28;20045;-79
2023/06/25 01:14:33;;;;;;;11.52;7.90;;;14.70;99.90;;;;;;5009790;28;20390;-78
2023/06/25 01:16:59;;;;;;;13.35;8.07;;;14.70;99.90;;;;;;5010471;28;20034;-78
2023/06/25 01:19:29;;;;;;;13.82;8.45;;;14.70;99.90;;;;;;5010021;28;20072;-77
2023/06/25 01:22:02;;;;;;;15.65;8.25;;;14.60;99.90;;;;;;5009572;28;20117;-77
2023/06/25 01:24:28;;;;;;;13.55;8.38;;;14.70;99.90;;;;;;5009556;28;20410;-77
2023/06/25 01:26:56;;;;;;;15.57;8.50;;;14.70;99.90;;;;;;5002560;28;20133;-76
2023/06/25 01:29:22;;;;;;;14.23;8.60;;;14.70;99.90;;;;;;5022330;28;20396;-76
2023/06/25 01:31:51;;;;;;;14.20;8.43;;;14.60;99.90;;;;;;5009305;28;20046;-78
2023/06/25 01:34:21;;;;;;;13.57;8.57;;;14.50;99.90;;;;;;5009445;28;20418;-79
2023/06/25 01:36:49;;;;;;;13.55;8.68;;;14.50;99.90;;;;;;5009534;28;20938;-76
2023/06/25 01:39:18;;;;;;;15.18;8.85;;;14.40;99.90;;;;;;5010446;28;20036;-76
2023/06/25 01:41:44;;;;;;;12.50;8.38;;;14.40;99.90;;;;;;5009555;28;20025;-77
2023/06/25 01:44:18;;;;;;;16.80;8.68;;;14.50;99.90;;;;;;5010309;28;20042;-79
2023/06/25 01:46:44;;;;;;;14.27;8.40;;;14.50;99.90;;;;;;5014859;28;20152;-78
2023/06/25 01:49:10;;;;;;;14.65;8.77;;;14.50;99.90;;;;;;5027773;28;20040;-77
2023/06/25 01:51:37;;;;;;;15.23;8.02;;;14.40;99.90;;;;;;5008265;28;20030;-76
2023/06/25 01:54:03;;;;;;;13.70;8.27;;;14.30;99.90;;;;;;5017405;28;20107;-79
2023/06/25 01:56:29;;;;;;;13.20;8.45;;;14.30;99.90;;;;;;5028955;28;20036;-78
2023/06/25 01:58:54;;;;;;;15.32;9.30;;;14.30;99.90;;;;;;5012499;28;20038;-78
2023/06/25 02:01:21;;;;;;;13.18;8.00;;;14.20;99.90;;;;;;5008792;28;20386;-78
2023/06/25 02:03:46;;;;;;;12.25;8.00;;;14.30;99.90;;;;;;5008919;28;20033;-76
2023/06/25 02:06:12;;;;;;;13.98;8.50;;;14.20;99.90;;;;;;5009063;28;20025;-79
2023/06/25 02:08:38;;;;;;;15.30;8.95;;;14.00;99.90;;;;;;5009059;28;20165;-78
2023/06/25 02:11:06;;;;;;;14.27;8.38;;;13.90;99.90;;;;;;5009820;28;20129;-78
2023/06/25 02:13:32;;;;;;;11.95;7.93;;;13.90;99.90;;;;;;5013488;28;20486;-78
2023/06/25 02:15:58;;;;;;;15.98;8.38;;;13.90;99.90;;;;;;4996325;28;20030;-77
2023/06/25 02:18:23;;;;;;;14.32;8.90;;;13.90;99.90;;;;;;5021932;28;20382;-77
2023/06/25 02:20:49;;;;;;;13.60;8.40;;;13.90;99.90;;;;;;5028543;28;20906;-77
2023/06/25 02:23:14;;;;;;;16.58;9.07;;;13.90;99.90;;;;;;5011518;28;20037;-77
2023/06/25 02:25:40;;;;;;;15.50;8.85;;;13.80;99.90;;;;;;5020924;28;20030;-77
2023/06/25 02:28:06;;;;;;;16.95;9.75;;;13.70;99.90;;;;;;5009454;28;20026;-77
2023/06/25 02:30:31;;;;;;;16.42;9.57;;;13.70;99.90;;;;;;5007655;28;20033;-76
2023/06/25 02:32:57;;;;;;;14.68;9.15;;;13.70;99.90;;;;;;5008727;28;20054;-78
2023/06/25 02:35:22;;;;;;;13.63;7.93;;;13.60;99.90;;;;;;5008589;28;20056;-77
2023/06/25 02:37:48;;;;;;;13.88;8.52;;;13.60;99.90;;;;;;5007941;28;20100;-76
2023/06/25 02:40:14;;;;;;;13.80;9.02;;;13.50;99.90;;;;;;5009273;28;20120;-78
2023/06/25 02:42:39;;;;;;;15.52;9.13;;;13.50;99.90;;;;;;5008383;28;20034;-76
2023/06/25 02:45:06;;;;;;;14.52;8.65;;;13.50;99.90;;;;;;5009307;28;20029;-76
2023/06/25 02:47:31;;;;;;;12.88;7.85;;;13.50;99.90;;;;;;5007727;28;20032;-77
2023/06/25 02:49:57;;;;;;;13.70;8.50;;;13.50;99.90;;;;;;5008381;28;20030;-76
2023/06/25 02:52:22;;;;;;;12.55;8.25;;;13.40;99.90;;;;;;5009132;28;20560;-76
2023/06/25 02:54:48;;;;;;;15.50;9.32;;;13.40;99.90;;;;;;5007815;28;20080;-77
2023/06/25 02:57:14;;;;;;;14.38;9.00;;;13.30;99.90;;;;;;5009107;28;20506;-76
2023/06/25 02:59:39;;;;;;;15.18;8.63;;;13.20;99.90;;;;;;5013529;28;20033;-76
2023/06/25 03:02:05;;;;;;;14.40;9.25;;;13.20;99.90;;;;;;5007564;28;20038;-76
2023/06/25 03:04:31;;;;;;;14.02;8.85;;;13.30;99.90;;;;;;4988849;28;20045;-76
2023/06/25 03:06:56;;;;;;;14.50;8.68;;;13.40;99.90;;;;;;4989221;28;20073;-77
2023/06/25 03:09:22;;;;;;;15.27;8.77;;;13.30;99.90;;;;;;4989256;28;20034;-77
2023/06/25 03:11:47;;;;;;;15.85;9.00;;;13.30;99.90;;;;;;4986388;28;20046;-76
2023/06/25 03:14:13;;;;;;;15.30;8.88;;;13.30;99.90;;;;;;4989227;28;20038;-76
2023/06/25 03:16:39;;;;;;;14.82;8.52;;;13.30;99.90;;;;;;5000939;28;20030;-79
2023/06/25 03:19:05;;;;;;;18.35;9.75;;;13.30;99.90;;;;;;5007986;28;20045;-77
2023/06/25 03:21:30;;;;;;;15.20;9.25;;;13.20;99.90;;;;;;5008521;28;20049;-74
2023/06/25 03:23:56;;;;;;;14.13;8.80;;;13.10;99.90;;;;;;5007472;28;20042;-78
2023/06/25 03:26:22;;;;;;;16.17;9.32;;;13.10;99.90;;;;;;5020595;28;20545;-78
2023/06/25 03:28:48;;;;;;;17.35;9.95;;;13.00;99.90;;;;;;5027757;28;20053;-78
2023/06/25 03:31:13;;;;;;;15.55;9.70;;;12.90;99.90;;;;;;4999220;28;20036;-77
2023/06/25 03:33:39;;;;;;;17.70;9.50;;;13.00;99.90;;;;;;5002298;28;20057;-77
2023/06/25 03:36:05;;;;;;;16.02;9.07;;;13.00;99.90;;;;;;5008097;28;20105;-77
2023/06/25 03:38:30;;;;;;;19.00;9.32;;;13.00;99.90;;;;;;5008266;28;20026;-77
2023/06/25 03:40:56;;;;;;;18.77;8.88;;;13.00;99.90;;;;;;5008009;28;20080;-78
2023/06/25 03:43:22;;;;;;;15.32;9.10;;;13.00;99.90;;;;;;5008635;28;20099;-77
2023/06/25 03:45:47;;;;;;;13.70;8.50;;;12.90;99.90;;;;;;5007159;28;20105;-77
2023/06/25 03:48:13;;;;;;;15.50;9.55;;;13.00;99.90;;;;;;5008574;28;20382;-77
2023/06/25 03:50:38;;;;;;;14.35;8.75;;;12.90;99.90;;;;;;5006943;28;20455;-77
2023/06/25 03:53:04;;;;;;;15.05;8.82;;;12.80;99.90;;;;;;5011127;28;20029;-75
2023/06/25 03:55:30;;;;;;;17.00;9.60;;;12.80;99.90;;;;;;5028264;28;20038;-79
2023/06/25 03:57:56;;;;;;;15.15;8.35;;;12.90;99.90;;;;;;5009083;28;20034;-77
2023/06/25 04:00:22;;;;;;;14.15;9.02;;;12.90;99.90;;;;;;5009770;28;20034;-78
2023/06/25 04:02:47;;;;;;;14.43;8.85;;;13.10;99.90;;;;;;5010576;28;20040;-76
2023/06/25 04:05:13;;;;;;;14.93;8.88;;;13.20;99.90;;;;;;5010895;28;20034;-75
2023/06/25 04:07:39;;;;;;;17.60;9.98;;;13.30;99.90;;;;;;5009165;28;20034;-76
2023/06/25 04:10:05;;;;;;;14.20;9.05;;;13.40;99.90;;;;;;5008586;28;20394;-76
2023/06/25 04:12:30;;;;;;;19.95;9.77;;;13.40;99.90;;;;;;5016222;28;20385;-78
2023/06/25 04:14:56;;;;;;;17.90;9.60;;;13.50;99.90;;;;;;5031190;28;20040;-77
2023/06/25 04:17:22;;;;;;;14.35;8.88;;;13.50;99.90;;;;;;5031935;28;20030;-76
2023/06/25 04:19:48;;;;;;;16.58;9.07;;;13.60;99.90;;;;;;5030745;28;20037;-77
2023/06/25 04:22:13;;;;;;;15.73;9.02;;;13.70;99.90;;;;;;5018389;28;20033;-79
2023/06/25 04:24:39;;;;;;;14.48;9.05;;;13.80;99.90;;;;;;5010651;28;20033;-79
2023/06/25 04:27:05;;;;;;;13.18;8.93;;;14.00;99.90;;;;;;5009205;28;20947;-78
2023/06/25 04:29:31;;;;;;;16.05;9.77;;;14.10;99.90;;;;;;5007313;28;20466;-76
2023/06/25 04:31:56;;;;;;;14.75;8.73;;;14.10;99.90;;;;;;5010691;28;20045;-76
2023/06/25 04:34:22;;;;;;;18.63;9.02;;;14.20;99.90;;;;;;5010659;28;20050;-78
2023/06/25 04:36:48;;;;;;;14.65;8.20;;;14.30;99.90;;;;;;5009936;28;20053;-78
2023/06/25 04:39:14;;;;;;;14.38;9.18;;;14.40;99.90;;;;;;5009465;28;20395;-75
2023/06/25 04:41:39;;;;;;;14.68;9.00;;;14.60;99.90;;;;;;5008155;28;20044;-79
2023/06/25 04:44:05;;;;;;;15.65;8.77;;;14.70;99.90;;;;;;5004116;28;20467;-73
2023/06/25 04:46:31;;;;;;;15.23;9.18;;;14.80;99.90;;;;;;4999011;28;20026;-77
2023/06/25 04:48:57;;;;;;;14.13;8.70;;;15.00;99.90;;;;;;5005204;28;20030;-77
2023/06/25 04:51:23;;;;;;;12.90;8.10;;;15.10;99.90;;;;;;5006163;28;20772;-78
2023/06/25 04:53:48;;;;;;;14.98;9.02;;;15.20;99.90;;;;;;5004470;28;20056;-78
2023/06/25 04:56:15;;;;;;;14.93;8.43;;;15.30;99.90;;;;;;5008370;28;20053;-76
2023/06/25 04:58:41;;;;;;;14.50;8.88;;;15.50;99.90;;;;;;5002604;28;20155;-75
2023/06/25 05:01:07;;;;;;;17.15;9.65;;;15.60;99.90;;;;;;5000086;28;20034;-78
2023/06/25 05:03:32;;;;;;;13.70;8.75;;;15.60;99.90;;;;;;5010819;28;20432;-78
2023/06/25 05:05:58;;;;;;;15.43;8.82;;;15.70;99.90;;;;;;5008785;28;20104;-76
2023/06/25 05:08:24;;;;;;;14.45;8.73;;;15.90;99.90;;;;;;5009889;28;20489;-77
2023/06/25 05:10:50;;;;;;;13.93;8.30;;;16.00;99.90;;;;;;5008721;28;20034;-78
2023/06/25 05:13:15;;;;;;;12.57;8.57;;;16.20;99.90;;;;;;5008513;28;20066;-79
2023/06/25 05:15:41;;;;;;;13.05;8.70;;;16.30;99.90;;;;;;5008383;28;20064;-80
2023/06/25 05:18:10;;;;;;;14.73;9.10;;;16.50;99.90;;;;;;5011131;28;20033;-79
2023/06/25 05:20:39;;;;;;;13.80;8.45;;;16.60;99.90;;;;;;5010512;28;20521;-77
2023/06/25 05:23:06;;;;;;;14.75;9.40;;;16.50;99.90;;;;;;5009289;28;20128;-78
2023/06/25 05:25:32;;;;;;;17.17;9.23;;;16.50;99.90;;;;;;5009832;28;20076;-79
2023/06/25 05:27:59;;;;;;;19.27;7.97;;;16.70;99.90;;;;;;5008699;28;20463;-76
2023/06/25 05:30:25;;;;;;;13.50;8.77;;;16.80;99.90;;;;;;4993137;28;20083;-79
2023/06/25 05:32:51;;;;;;;14.40;8.60;;;16.90;99.90;;;;;;5008710;28;20026;-78
2023/06/25 05:35:16;;;;;;;14.88;9.10;;;17.00;99.90;;;;;;5008587;28;20100;-78
2023/06/25 05:37:42;;;;;;;15.98;9.45;;;17.20;99.90;;;;;;5015156;28;20049;-78
2023/06/25 05:40:08;;;;;;;13.45;8.52;;;17.30;99.90;;;;;;5023929;28;20926;-78
2023/06/25 05:42:33;;;;;;;12.93;8.32;;;17.40;99.90;;;;;;5009730;28;20423;-77
2023/06/25 05:44:59;;;;;;;13.18;7.68;;;17.40;99.90;;;;;;5009365;28;20072;-77
2023/06/25 05:47:25;;;;;;;13.80;8.25;;;17.70;99.90;;;;;;5009097;28;20037;-77
2023/06/25 05:49:50;;;;;;;14.40;8.23;;;18.00;99.90;;;;;;5009069;28;20108;-79
2023/06/25 05:52:16;;;;;;;13.60;8.02;;;18.40;99.90;;;;;;5010300;28;20037;-78
2023/06/25 05:54:41;;;;;;;14.93;8.65;;;18.90;99.90;;;;;;5009562;28;20072;-74
2023/06/25 05:57:07;;;;;;;14.27;8.23;;;19.20;99.90;;;;;;5009769;28;20053;-78
2023/06/25 05:59:33;;;;;;;15.68;8.35;;;19.50;99.90;;;;;;5009084;28;20033;-80
2023/06/25 06:01:58;;;;;;;15.07;8.65;;;19.80;99.90;;;;;;5008292;28;20049;-79
2023/06/25 06:04:24;;;;;;;17.70;8.57;;;20.00;99.90;;;;;;4991253;28;20066;-75
2023/06/25 06:06:49;;;;;;;13.07;8.05;;;20.10;99.90;;;;;;5009915;28;20075;-77
2023/06/25 06:09:15;;;;;;;14.30;8.93;;;20.20;99.90;;;;;;4996263;28;20033;-79
2023/06/25 06:11:41;;;;;;;14.43;8.65;;;20.30;99.90;;;;;;5008645;28;20068;-73
2023/06/25 06:14:06;;;;;;;15.48;9.00;;;20.40;99.90;;;;;;5008215;28;20558;-77
2023/06/25 06:16:32;;;;;;;16.80;8.85;;;20.50;99.90;;;;;;5008535;28;20021;-80
2023/06/25 06:18:58;;;;;;;17.92;8.75;;;20.70;99.90;;;;;;5007904;28;20471;-78
2023/06/25 06:21:23;;;;;;;18.30;8.48;;;20.90;99.90;;;;;;5007221;28;20617;-76
2023/06/25 06:23:49;;;;;;;19.08;9.95;;;21.10;99.90;;;;;;5006670;28;20394;-77
2023/06/25 06:26:16;;;;;;;14.57;9.00;;;21.30;99.90;;;;;;5008106;28;20034;-76
2023/06/25 06:28:41;;;;;;;15.73;8.93;;;21.40;99.90;;;;;;5006724;28;20100;-75
2023/06/25 06:31:07;;;;;;;13.80;8.68;;;21.60;99.60;;;;;;4989889;28;20026;-78
2023/06/25 06:33:33;;;;;;;14.88;8.93;;;21.80;99.90;;;;;;5004800;28;20057;-75
2023/06/25 06:35:58;;;;;;;16.20;9.43;;;21.90;99.00;;;;;;5007539;28;20038;-78
2023/06/25 06:38:24;;;;;;;17.55;9.13;;;22.10;98.40;;;;;;5006563;28;20025;-78
2023/06/25 06:40:50;;;;;;;13.45;8.55;;;22.30;97.80;;;;;;5006191;28;20034;-79
2023/06/25 06:43:15;;;;;;;14.07;8.98;;;22.30;98.20;;;;;;4991498;28;20062;-78
2023/06/25 06:45:41;;;;;;;14.80;8.60;;;22.50;98.80;;;;;;5008627;28;20069;-76
2023/06/25 06:48:08;;;;;;;15.00;9.23;;;22.60;97.30;;;;;;4988960;28;20063;-77
2023/06/25 06:50:34;;;;;;;14.88;9.20;;;22.70;96.50;;;;;;5006783;28;20041;-79
2023/06/25 06:53:00;;;;;;;15.77;9.05;;;22.80;95.70;;;;;;5006020;28;20130;-77
2023/06/25 06:55:25;;;;;;;13.13;8.88;;;22.90;95.00;;;;;;5009475;28;20029;-77
2023/06/25 06:57:51;;;;;;;15.07;8.60;;;23.10;93.80;;;;;;5005781;28;20373;-76
2023/06/25 07:00:18;;;;;;;13.80;9.07;;;23.20;94.00;;;;;;5006828;28;20040;-78
2023/06/25 07:02:44;;;;;;;14.57;9.00;;;23.30;92.00;;;;;;4999742;28;20089;-75
2023/06/25 07:05:11;;;;;;;16.90;9.07;;;23.30;91.30;;;;;;5007625;28;20041;-78
2023/06/25 07:07:36;;;;;;;17.50;8.98;;;23.30;91.30;;;;;;5006258;28;20402;-79
2023/06/25 07:10:02;;;;;;;13.70;8.82;;;23.30;90.60;;;;;;5006968;28;20038;-78
2023/06/25 07:12:28;;;;;;;14.88;9.18;;;23.40;91.10;;;;;;5010548;28;20040;-78
2023/06/25 07:14:54;;;;;;;15.15;8.60;;;23.50;90.00;;;;;;5006173;28;20030;-77
2023/06/25 07:17:19;;;;;;;14.50;8.45;;;23.60;88.10;;;;;;5007258;28;20108;-76
2023/06/25 07:19:45;;;;;;;16.20;9.60;;;23.50;86.50;;;;;;5007925;28;20122;-74
2023/06/25 07:22:10;;;;;;;13.88;9.48;;;23.50;86.00;;;;;;5002180;28;20034;-80
2023/06/25 07:24:36;;;;;;;12.88;8.60;;;23.70;87.40;;;;;;4987097;28;20038;-77
2023/06/25 07:27:02;;;;;;;17.85;9.40;;;23.80;86.50;;;;;;4993160;28;20034;-76
2023/06/25 07:29:28;;;;;;;16.52;8.82;;;24.00;85.80;;;;;;4973019;28;20509;-74
2023/06/25 07:31:54;;;;;;;14.68;8.88;;;24.00;83.40;;;;;;4965481;28;20045;-73
2023/06/25 07:34:20;;;;;;;16.35;9.02;;;24.20;83.60;;;;;;4939510;28;20597;-72
2023/06/25 07:36:45;;;;;;;17.40;8.95;;;24.10;82.10;;;;;;4942685;28;20142;-70
2023/06/25 07:39:26;;;;;;;16.02;9.10;;;24.20;79.30;;;;;;4965738;28;20046;-76
2023/06/25 07:41:53;;;;;;;15.48;9.15;;;24.30;79.20;;;;;;4956111;28;20873;-70
2023/06/25 07:44:18;;;;;;;24.05;9.32;;;24.40;80.10;;;;;;4968301;28;20046;-73
2023/06/25 07:46:44;;;;;;;14.30;8.63;;;24.50;78.10;;;;;;4965696;28;20034;-72
2023/06/25 07:49:10;;;;;;;14.68;9.45;;;24.60;78.90;;;;;;4959244;28;20640;-72
2023/06/25 07:51:35;;;;;;;15.32;9.45;;;24.70;77.50;;;;;;4970195;28;20395;-76
2023/06/25 07:54:01;;;;;;;13.57;8.40;;;24.70;75.60;;;;;;4966903;28;20049;-72
2023/06/25 07:56:26;;;;;;;14.57;8.50;;;24.70;77.30;;;;;;4977061;28;20035;-72
2023/06/25 07:58:52;;;;;;;15.15;8.63;;;24.80;75.90;;;;;;4969002;28;20115;-72
2023/06/25 08:01:18;;;;;;;13.23;8.82;;;24.80;74.50;;;;;;4985157;28;20399;-76
2023/06/25 08:03:43;;;;;;;13.18;8.95;;;24.90;74.60;;;;;;4970765;28;20039;-77
2023/06/25 08:06:09;;;;;;;15.30;8.23;;;25.00;72.60;;;;;;4974791;28;20066;-74
2023/06/25 08:08:35;;;;;;;15.05;8.30;;;25.20;73.10;;;;;;4975491;28;20042;-75
2023/06/25 08:11:01;;;;;;;12.45;7.45;;;25.40;72.40;;;;;;4974552;28;20037;-77
2023/06/25 08:13:26;;;;;;;12.02;7.22;;;25.40;69.90;;;;;;4971477;28;20073;-76
2023/06/25 08:15:54;;;;;;;13.40;8.60;;;25.50;68.10;;;;;;4967844;28;20157;-73
2023/06/25 08:18:20;;;;;;;12.05;7.53;;;25.60;67.30;;;;;;4973966;28;20053;-73
2023/06/25 08:20:46;;;;;;;11.73;7.57;;;25.50;66.50;;;;;;4971866;28;21097;-72
2023/06/25 08:23:11;;;;;;;10.60;7.47;;;25.70;66.80;;;;;;4968265;28;20046;-70
2023/06/25 08:25:38;;;;;;;12.30;8.00;;;25.70;66.20;;;;;;4970761;28;20033;-76
2023/06/25 08:28:04;;;;;;;11.80;7.55;;;25.60;65.40;;;;;;4975667;28;20246;-78
2023/06/25 08:30:30;;;;;;;11.43;6.80;;;25.60;66.40;;;;;;4975098;28;20839;-68
2023/06/25 08:32:55;;;;;;;11.77;7.95;;;25.70;63.50;;;;;;4972652;28;20049;-72
2023/06/25 08:35:21;;;;;;;11.02;7.03;;;25.90;65.50;;;;;;4989307;28;20034;-74
2023/06/25 08:37:47;;;;;;;21.42;7.22;;;25.90;66.00;;;;;;4993809;28;20038;-69
2023/06/25 08:40:13;;;;;;;10.73;7.07;;;25.90;65.80;;;;;;4989593;28;20045;-72
2023/06/25 08:42:42;;;;;;;12.38;7.38;;;26.00;66.30;;;;;;4999617;28;20037;-72
2023/06/25 08:45:10;;;;;;;14.43;7.28;;;26.30;64.20;;;;;;5011542;28;20471;-73
2023/06/25 08:47:40;;;;;;;11.45;7.20;;;26.40;62.90;;;;;;5011506;28;20037;-74
2023/06/25 08:50:06;;;;;;;;;;;26.50;62.50;;;;;;5009776;28;20061;-75
2023/06/25 08:52:33;;;;;;;9.73;7.13;;;26.60;63.60;;;;;;5004509;28;20273;-73
2023/06/25 08:54:59;;;;;;;12.35;7.47;;;26.70;62.50;;;;;;5009548;28;20060;-75
2023/06/25 08:57:25;;;;;;;12.07;7.05;;;26.60;62.10;;;;;;5008786;28;20034;-75
2023/06/25 08:59:51;;;;;;;14.10;7.50;;;26.60;63.50;;;;;;5008205;28;20052;-73
2023/06/25 09:02:17;;;;;;;9.32;6.50;;;26.60;61.60;;;;;;5007936;28;20037;-73
2023/06/25 09:04:46;;;;;;;10.68;7.10;;;26.60;62.90;;;;;;4990949;28;20042;-74
2023/06/25 09:07:15;;;;;;;18.85;7.43;;;26.70;62.90;;;;;;4979651;28;20474;-78
2023/06/25 09:09:42;;;;;;;10.63;7.28;;;26.70;62.70;;;;;;5003864;28;20108;-74
2023/06/25 09:12:09;;;;;;;10.35;6.90;;;26.60;61.80;;;;;;5006949;28;20033;-75
2023/06/25 09:14:35;;;;;;;14.48;6.65;;;26.60;60.90;;;;;;5009841;28;20398;-73
2023/06/25 09:17:02;;;;;;;10.18;6.60;;;26.60;61.10;;;;;;5009546;28;20022;-76
2023/06/25 09:19:28;;;;;;;8.45;5.95;;;26.80;62.40;;;;;;5009684;28;20442;-73
2023/06/25 09:21:53;;;;;;;10.70;6.25;;;27.00;60.70;;;;;;5007099;28;20057;-75
2023/06/25 09:24:20;;;;;;;9.50;6.07;;;27.10;59.50;;;;;;5009790;28;20033;-76
2023/06/25 09:26:47;;;;;;;9.63;5.75;;;27.10;58.90;;;;;;5002879;28;20038;-75
2023/06/25 09:29:13;;;;;;;8.18;5.72;;;27.00;57.90;;;;;;4992386;28;20032;-73
2023/06/25 09:31:43;;;;;;;22.15;6.13;;;27.10;57.60;;;;;;5008317;28;20470;-75
2023/06/25 09:34:09;;;;;;;8.80;5.40;;;27.00;58.90;;;;;;5007485;28;20633;-76
2023/06/25 09:36:35;;;;;;;8.75;5.85;;;27.20;59.10;;;;;;5007955;28;20088;-72
2023/06/25 09:39:05;;;;;;;7.80;5.68;;;27.50;58.60;;;;;;5009270;28;20029;-73
2023/06/25 09:41:34;;;;;;;8.73;5.80;;;27.70;58.20;;;;;;5007031;28;20018;-76
2023/06/25 09:44:02;;;;;;;11.07;5.80;;;27.60;59.70;;;;;;5008209;28;20045;-75
2023/06/25 09:46:30;;;;;;;8.57;6.00;;;27.40;60.70;;;;;;5006210;28;20172;-74
2023/06/25 09:48:57;;;;;;;12.73;6.63;;;27.50;60.80;;;;;;5006649;28;20053;-73
2023/06/25 09:51:31;;;;;;;8.45;5.80;;;27.40;61.00;;;;;;5008877;28;20026;-74
2023/06/25 09:54:02;;;;;;;12.95;5.82;;;27.40;60.90;;;;;;5007469;28;20038;-72
2023/06/25 09:56:29;;;;;;;9.63;5.68;;;27.30;60.50;;;;;;5000219;28;20073;-71
2023/06/25 09:58:55;;;;;;;7.78;5.32;;;27.60;59.90;;;;;;4997872;28;20113;-74
2023/06/25 10:01:21;;;;;;;9.55;5.85;;;27.70;63.20;;;;;;5006592;28;20038;-76
2023/06/25 10:03:47;;;;;;;10.27;6.45;;;27.70;59.70;;;;;;5004193;28;20046;-78
2023/06/25 10:06:13;;;;;;;10.32;6.20;;;27.60;59.60;;;;;;4993996;28;20790;-74
2023/06/25 10:08:39;;;;;;;9.45;5.90;;;27.50;60.00;;;;;;5002928;28;20398;-74
2023/06/25 10:11:05;;;;;;;8.52;6.32;;;27.70;58.50;;;;;;4994445;28;20038;-75
2023/06/25 10:13:33;;;;;;;10.68;5.53;;;27.80;58.80;;;;;;4990138;28;20026;-75
2023/06/25 10:16:01;;;;;;;12.25;5.90;;;28.10;58.80;;;;;;4999444;28;20077;-75
2023/06/25 10:18:27;;;;;;;10.57;6.15;;;28.00;58.50;;;;;;5009096;28;20042;-73
2023/06/25 10:20:57;;;;;;;8.25;5.75;;;28.30;60.20;;;;;;5008452;28;20516;-72
2023/06/25 10:23:23;;;;;;;10.55;5.43;;;28.30;57.20;;;;;;5006781;28;20041;-74
2023/06/25 10:25:57;;;;;;;7.72;5.72;;;28.30;56.10;;;;;;5007811;28;20494;-75
2023/06/25 10:28:37;;;;;;;9.80;6.80;;;28.40;55.30;;;;;;5008059;28;20030;-74
2023/06/25 10:31:13;;;;;;;;;;;28.40;56.70;;;;;;5008043;28;20046;-72
2023/06/25 10:33:38;;;;;;;11.65;6.72;;;28.50;58.30;;;;;;5008925;28;19925;-74
2023/06/25 10:36:08;;;;;;;8.38;6.03;;;28.30;57.80;;;;;;5006907;28;20828;-75
2023/06/25 10:38:34;;;;;;;10.18;6.60;;;28.20;58.00;;;;;;5006372;28;20412;-73
2023/06/25 10:41:00;;;;;;;16.05;6.35;;;28.50;58.10;;;;;;4994872;28;20042;-75
2023/06/25 10:43:26;;;;;;;8.45;6.18;;;28.80;60.60;;;;;;5000775;28;20088;-72
2023/06/25 10:45:56;;;;;;;11.82;6.38;;;28.90;56.70;;;;;;5008188;28;20092;-72
2023/06/25 10:48:22;;;;;;;;;;;28.70;56.30;;;;;;5008136;28;20128;-72
2023/06/25 10:50:49;;;;;;;9.57;5.85;;;28.60;56.70;;;;;;5008172;28;19932;-76
2023/06/25 10:53:16;;;;;;;8.45;5.60;;;28.70;56.80;;;;;;5007583;28;20033;-75
2023/06/25 10:55:47;;;;;;;9.48;5.90;;;28.80;56.70;;;;;;5005947;28;20036;-75
2023/06/25 10:58:21;;;;;;;7.60;5.72;;;28.90;56.70;;;;;;5006707;28;20077;-74
2023/06/25 11:00:54;;;;;;;10.35;5.85;;;28.80;56.40;;;;;;5007257;28;20504;-73
2023/06/25 11:03:20;;;;;;;8.32;5.47;;;28.40;55.60;;;;;;5007237;28;20042;-74
2023/06/25 11:05:46;;;;;;;9.77;6.07;;;28.30;56.70;;;;;;5007097;28;20041;-75
2023/06/25 11:08:15;;;;;;;9.02;6.13;;;28.40;54.30;;;;;;5007157;28;20502;-75
2023/06/25 11:10:41;;;;;;;9.38;6.55;;;28.80;56.10;;;;;;5012069;28;20061;-74
2023/06/25 11:13:12;;;;;;;8.48;5.63;;;29.20;56.00;;;;;;4996198;28;20030;-75
2023/06/25 11:15:40;;;;;;;6.82;5.25;;;29.50;55.60;;;;;;5013266;28;20080;-74
2023/06/25 11:18:07;;;;;;;8.48;5.63;;;29.40;53.10;;;;;;5014569;28;20049;-74
2023/06/25 11:20:33;;;;;;;6.97;5.30;;;29.10;54.80;;;;;;5013466;28;20579;-73
2023/06/25 11:23:00;;;;;;;9.48;5.85;;;29.50;54.90;;;;;;5013283;28;20033;-76
2023/06/25 11:25:26;;;;;;;7.88;5.22;;;29.30;52.40;;;;;;5013474;28;20044;-75
2023/06/25 11:28:07;;;;;;;8.25;5.00;;;29.50;52.60;;;;;;5014349;28;20393;-75
2023/06/25 11:30:33;;;;;;;7.70;5.38;;;29.60;51.10;;;;;;5006248;28;20036;-74
2023/06/25 11:33:18;;;;;;;7.75;5.43;;;29.50;51.50;;;;;;5013908;28;20041;-73
2023/06/25 11:35:49;;;;;;;8.48;5.32;;;29.60;51.80;;;;;;5010265;28;20021;-73
2023/06/25 11:38:26;;;;;;;7.90;5.32;;;29.60;51.80;;;;;;5012506;28;20037;-74
2023/06/25 11:40:53;;;;;;;7.85;5.40;;;29.70;52.70;;;;;;5002267;28;20034;-74
2023/06/25 11:43:25;;;;;;;7.43;5.50;;;29.70;51.90;;;;;;4995939;28;20162;-73
2023/06/25 11:45:51;;;;;;;8.07;5.40;;;29.60;51.50;;;;;;5014383;28;20115;-73
2023/06/25 11:48:18;;;;;;;7.28;5.35;;;29.60;51.50;;;;;;5009261;28;20092;-72
2023/06/25 11:50:45;;;;;;;7.63;5.35;;;29.60;50.00;;;;;;5010033;28;20034;-73
2023/06/25 11:53:11;;;;;;;8.80;5.80;;;29.80;52.30;;;;;;5011406;28;20030;-73
2023/06/25 11:55:38;;;;;;;9.25;5.93;;;29.50;50.60;;;;;;5013824;28;20107;-73
2023/06/25 11:58:04;;;;;;;7.13;5.30;;;29.70;52.10;;;;;;5013994;28;20045;-73
2023/06/25 12:00:30;;;;;;;7.88;5.70;;;30.00;52.00;;;;;;5006420;28;20033;-74
2023/06/25 12:02:55;;;;;;;9.88;5.47;;;30.30;50.90;;;;;;5013527;28;20405;-72
2023/06/25 12:05:21;;;;;;;7.15;5.40;;;30.50;49.20;;;;;;5012834;28;20057;-73
2023/06/25 12:07:47;;;;;;;7.88;5.82;;;30.70;50.60;;;;;;5014913;28;20092;-75
2023/06/25 12:10:12;;;;;;;9.27;5.68;;;30.70;49.70;;;;;;5006963;28;20022;-75
2023/06/25 12:12:38;;;;;;;9.25;6.05;;;30.70;47.60;;;;;;5012815;28;20080;-73
2023/06/25 12:15:04;;;;;;;8.25;5.95;;;30.60;48.30;;;;;;5011510;28;20064;-73
2023/06/25 12:17:30;;;;;;;11.38;5.55;;;30.60;50.40;;;;;;5014140;28;20061;-73
2023/06/25 12:19:56;;;;;;;7.90;5.72;;;30.20;49.10;;;;;;5011542;28;20466;-73
2023/06/25 12:22:21;;;;;;;7.60;5.57;;;30.00;49.80;;;;;;5008804;28;20080;-76
2023/06/25 12:24:47;;;;;;;9.98;5.20;;;30.30;50.80;;;;;;5006562;28;20045;-75
2023/06/25 12:27:13;;;;;;;10.30;5.63;;;30.20;49.40;;;;;;5007900;28;20030;-77
2023/06/25 12:29:38;;;;;;;8.18;5.45;;;30.50;48.90;;;;;;5013337;28;20041;-76
2023/06/25 12:32:04;;;;;;;7.50;5.20;;;30.50;48.20;;;;;;5004025;28;20483;-75
2023/06/25 12:34:30;;;;;;;8.10;5.30;;;30.30;48.50;;;;;;5007112;28;20084;-76
2023/06/25 12:36:55;;;;;;;7.90;5.45;;;30.20;48.50;;;;;;4995576;28;20044;-76